createdAt,value
2023-02-11T00:01:06.988Z,13.55
2023-02-11T00:03:33.931Z,11.02
2023-02-11T00:06:01.879Z,12.23
2023-02-11T00:08:28.856Z,11.60
2023-02-11T00:10:56.917Z,11.75
2023-02-11T00:13:24.792Z,10.38
2023-02-11T00:15:51.620Z,11.43
2023-02-11T00:18:18.417Z,10.40
2023-02-11T00:20:44.983Z,10.95
2023-02-11T00:23:11.870Z,11.65
2023-02-11T00:25:40.787Z,11.65
2023-02-11T00:28:07.715Z,11.05
2023-02-11T00:30:34.808Z,11.57
2023-02-11T00:33:01.757Z,9.85
2023-02-11T00:35:29.540Z,10.70
2023-02-11T00:37:56.615Z,11.35
2023-02-11T00:40:24.134Z,11.02
2023-02-11T00:42:51.044Z,10.55
2023-02-11T00:45:17.740Z,10.70
2023-02-11T00:47:45.698Z,11.05
2023-02-11T00:50:12.660Z,10.52
2023-02-11T00:52:39.261Z,8.90
2023-02-11T00:55:06.280Z,10.07
2023-02-11T00:57:32.879Z,9.23
2023-02-11T00:59:59.410Z,11.02
2023-02-11T01:02:26.146Z,10.02
2023-02-11T01:04:52.709Z,10.27
2023-02-11T01:07:19.613Z,10.82
2023-02-11T01:09:46.147Z,11.07
2023-02-11T01:12:12.752Z,8.43
2023-02-11T01:14:40.896Z,10.30
2023-02-11T01:17:07.573Z,8.68
2023-02-11T01:19:34.183Z,9.45
2023-02-11T01:22:00.798Z,7.50
2023-02-11T01:24:27.395Z,10.43
2023-02-11T01:26:54.336Z,9.48
2023-02-11T01:29:24.353Z,10.30
2023-02-11T01:31:54.650Z,9.32
2023-02-11T01:34:21.264Z,9.20
2023-02-11T01:36:47.846Z,8.80
2023-02-11T01:39:14.512Z,8.68
2023-02-11T01:41:41.132Z,9.00
2023-02-11T01:44:22.921Z,9.10
2023-02-11T01:46:49.926Z,7.20
2023-02-11T01:49:25.661Z,9.23
2023-02-11T01:51:58.679Z,7.60
2023-02-11T01:54:50.213Z,9.00
2023-02-11T01:57:24.902Z,7.30
2023-02-11T02:00:15.732Z,8.23
2023-02-11T02:02:58.614Z,8.00
2023-02-11T02:05:48.918Z,8.18
2023-02-11T02:08:25.638Z,7.35
2023-02-11T02:10:56.354Z,8.45
2023-02-11T02:13:24.207Z,8.80
2023-02-11T02:15:54.908Z,8.70
2023-02-11T02:18:36.326Z,7.30
2023-02-11T02:21:11.922Z,7.60
2023-02-11T02:24:15.942Z,8.20
2023-02-11T02:27:10.118Z,6.47
2023-02-11T02:29:55.225Z,6.10
2023-02-11T02:32:24.585Z,6.33
2023-02-11T02:34:58.088Z,7.35
2023-02-11T02:37:34.713Z,7.72
2023-02-11T02:40:07.937Z,6.43
2023-02-11T02:42:35.277Z,8.27
2023-02-11T02:45:02.021Z,6.47
2023-02-11T02:47:28.779Z,6.35
2023-02-11T02:49:55.283Z,7.05
2023-02-11T02:52:39.180Z,7.80
2023-02-11T02:55:20.462Z,7.53
2023-02-11T02:58:04.589Z,7.82
2023-02-11T03:00:54.319Z,8.10
2023-02-11T03:03:30.376Z,7.82
2023-02-11T03:06:04.162Z,8.73
2023-02-11T03:08:40.469Z,8.13
2023-02-11T03:11:09.390Z,9.15
2023-02-11T03:13:39.233Z,7.95
2023-02-11T03:16:27.021Z,7.72
2023-02-11T03:19:01.751Z,8.13
2023-02-11T03:21:33.157Z,7.20
2023-02-11T03:24:05.776Z,8.85
2023-02-11T03:26:46.758Z,7.43
2023-02-11T03:29:55.321Z,7.20
2023-02-11T03:32:31.841Z,8.60
2023-02-11T03:35:03.898Z,8.93
2023-02-11T03:37:43.403Z,8.68
2023-02-11T03:40:11.737Z,9.30
2023-02-11T03:42:44.444Z,9.32
2023-02-11T03:45:17.076Z,8.85
2023-02-11T03:47:49.209Z,8.65
2023-02-11T03:50:17.195Z,9.25
2023-02-11T03:52:44.129Z,8.65
2023-02-11T03:55:18.356Z,8.38
2023-02-11T03:57:45.348Z,9.43
2023-02-11T04:00:12.696Z,9.70
2023-02-11T04:02:40.708Z,10.63
2023-02-11T04:05:09.951Z,9.25
2023-02-11T04:07:36.481Z,8.82
2023-02-11T04:10:03.471Z,9.65
2023-02-11T04:12:30.238Z,10.55
2023-02-11T04:14:56.732Z,9.88
2023-02-11T04:17:23.629Z,9.57
2023-02-11T04:19:50.258Z,9.98
2023-02-11T04:22:17.014Z,9.77
2023-02-11T04:24:44.056Z,9.00
2023-02-11T04:27:10.954Z,9.75
2023-02-11T04:29:37.738Z,9.50
2023-02-11T04:32:04.464Z,9.20
2023-02-11T04:34:31.165Z,10.15
2023-02-11T04:36:57.707Z,9.27
2023-02-11T04:39:24.315Z,8.77
2023-02-11T04:41:50.832Z,9.65
2023-02-11T04:44:17.440Z,10.07
2023-02-11T04:46:43.997Z,7.90
2023-02-11T04:49:15.568Z,7.90
2023-02-11T04:51:42.751Z,9.30
2023-02-11T04:54:09.324Z,9.27
2023-02-11T04:56:35.910Z,9.05
2023-02-11T04:59:03.542Z,9.85
2023-02-11T05:01:30.308Z,7.82
2023-02-11T05:03:57.183Z,8.73
2023-02-11T05:06:23.787Z,8.77
2023-02-11T05:08:50.512Z,10.30
2023-02-11T05:11:20.016Z,9.05
2023-02-11T05:13:47.333Z,10.88
2023-02-11T05:16:15.327Z,10.68
2023-02-11T05:18:43.765Z,11.07
2023-02-11T05:21:13.280Z,9.68
2023-02-11T05:23:40.482Z,10.73
2023-02-11T05:26:07.096Z,10.55
2023-02-11T05:28:33.819Z,9.80
2023-02-11T05:31:00.959Z,9.23
2023-02-11T05:33:27.793Z,9.75
2023-02-11T05:36:04.269Z,9.18
2023-02-11T05:38:30.911Z,10.85
2023-02-11T05:40:57.581Z,12.27
2023-02-11T05:43:24.214Z,10.38
2023-02-11T05:45:51.146Z,10.98
2023-02-11T05:48:18.041Z,11.63
2023-02-11T05:50:45.343Z,10.88
2023-02-11T05:53:12.485Z,10.52
2023-02-11T05:55:39.312Z,11.07
2023-02-11T05:58:07.895Z,10.10
2023-02-11T06:00:34.919Z,11.50
2023-02-11T06:03:01.874Z,10.70
2023-02-11T06:05:28.766Z,9.80
2023-02-11T06:07:55.965Z,11.55
2023-02-11T06:10:22.706Z,11.50
2023-02-11T06:12:49.384Z,10.63
2023-02-11T06:15:15.977Z,11.80
2023-02-11T06:17:42.526Z,10.52
2023-02-11T06:20:10.458Z,10.35
2023-02-11T06:22:37.900Z,10.70
2023-02-11T06:25:05.255Z,12.57
2023-02-11T06:27:31.903Z,11.63
2023-02-11T06:29:58.847Z,11.25
2023-02-11T06:32:43.245Z,12.98
2023-02-11T06:35:12.063Z,12.65
2023-02-11T06:37:39.429Z,10.88
2023-02-11T06:40:06.579Z,10.95
2023-02-11T06:42:33.079Z,11.77
2023-02-11T06:44:59.849Z,12.02
2023-02-11T06:47:26.380Z,11.05
2023-02-11T06:49:52.941Z,13.70
2023-02-11T06:52:19.462Z,13.48
2023-02-11T06:54:46.105Z,12.95
2023-02-11T06:57:12.662Z,12.63
2023-02-11T06:59:39.602Z,11.95
2023-02-11T07:02:06.233Z,10.82
2023-02-11T07:04:33.117Z,13.77
2023-02-11T07:06:59.716Z,12.35
2023-02-11T07:09:26.557Z,11.80
2023-02-11T07:11:53.070Z,13.32
2023-02-11T07:14:19.750Z,13.25
2023-02-11T07:16:46.438Z,13.18
2023-02-11T07:19:13.013Z,12.15
2023-02-11T07:21:40.020Z,11.10
2023-02-11T07:24:10.761Z,13.57
2023-02-11T07:26:38.526Z,11.50
2023-02-11T07:29:05.549Z,12.02
2023-02-11T07:31:32.425Z,13.88
2023-02-11T07:34:00.870Z,13.35
2023-02-11T07:36:29.229Z,13.02
2023-02-11T07:38:55.899Z,13.23
2023-02-11T07:41:23.972Z,14.05
2023-02-11T07:43:51.465Z,12.65
2023-02-11T07:46:26.778Z,14.18
2023-02-11T07:51:29.512Z,12.85
2023-02-11T07:53:58.261Z,12.23
2023-02-11T07:56:25.676Z,12.50
2023-02-11T07:58:53.050Z,12.98
2023-02-11T08:01:24.904Z,12.80
2023-02-11T08:03:52.316Z,12.13
2023-02-11T08:06:21.540Z,14.73
2023-02-11T08:08:49.190Z,13.23
2023-02-11T08:11:22.548Z,13.77
2023-02-11T08:13:50.078Z,12.40
2023-02-11T08:16:23.574Z,13.07
2023-02-11T08:18:51.665Z,12.75
2023-02-11T08:21:19.659Z,12.60
2023-02-11T08:23:47.153Z,12.02
2023-02-11T08:26:16.851Z,12.02
2023-02-11T08:28:45.732Z,12.30
2023-02-11T08:31:19.614Z,12.10
2023-02-11T08:33:47.044Z,12.68
2023-02-11T08:36:19.308Z,11.23
2023-02-11T08:38:46.887Z,11.15
2023-02-11T08:41:14.921Z,11.77
2023-02-11T08:43:43.434Z,12.43
2023-02-11T08:46:14.314Z,10.85
2023-02-11T08:48:41.459Z,11.98
2023-02-11T08:51:10.063Z,11.27
2023-02-11T08:53:37.230Z,10.25
2023-02-11T08:56:03.986Z,11.93
2023-02-11T08:58:30.587Z,11.75
2023-02-11T09:00:57.100Z,11.68
2023-02-11T09:03:24.156Z,12.15
2023-02-11T09:05:53.140Z,11.82
2023-02-11T09:08:21.057Z,11.63
2023-02-11T09:10:48.106Z,14.07
2023-02-11T09:13:16.899Z,11.68
2023-02-11T09:15:46.810Z,12.98
2023-02-11T09:18:14.232Z,12.30
2023-02-11T09:20:40.905Z,12.13
2023-02-11T09:23:07.561Z,11.43
2023-02-11T09:25:34.606Z,13.50
2023-02-11T09:28:01.306Z,11.98
2023-02-11T09:30:27.976Z,11.80
2023-02-11T09:32:54.580Z,13.68
2023-02-11T09:35:21.179Z,13.35
2023-02-11T09:37:47.748Z,13.32
2023-02-11T09:40:15.765Z,13.80
2023-02-11T09:42:50.758Z,13.43
2023-02-11T09:45:29.365Z,13.60
2023-02-11T09:47:57.958Z,13.05
2023-02-11T09:50:43.254Z,13.18
2023-02-11T09:53:25.141Z,13.90
2023-02-11T09:55:59.622Z,15.32
2023-02-11T09:58:30.232Z,12.20
2023-02-11T10:01:30.603Z,14.23
2023-02-11T10:04:25.000Z,13.10
2023-02-11T10:06:55.081Z,12.30
2023-02-11T10:09:37.311Z,13.80
2023-02-11T10:12:31.646Z,14.45
2023-02-11T10:15:07.168Z,13.68
2023-02-11T10:20:37.986Z,13.18
2023-02-11T10:23:15.207Z,14.65
2023-02-11T10:25:49.121Z,13.13
2023-02-11T10:28:24.978Z,14.95
2023-02-11T10:31:09.657Z,14.85
2023-02-11T10:34:05.408Z,14.70
2023-02-11T10:36:38.279Z,14.65
2023-02-11T10:39:23.543Z,14.52
2023-02-11T10:41:57.996Z,14.93
2023-02-11T10:44:26.949Z,14.60
2023-02-11T10:46:54.579Z,14.50
2023-02-11T10:49:35.326Z,14.45
2023-02-11T10:52:25.968Z,15.50
2023-02-11T10:55:17.656Z,12.77
2023-02-11T10:57:57.928Z,13.07
2023-02-11T11:00:37.086Z,13.20
2023-02-11T11:03:15.248Z,13.65
2023-02-11T11:06:01.987Z,11.65
2023-02-11T11:08:50.579Z,12.55
2023-02-11T11:11:25.606Z,13.93
2023-02-11T11:13:52.376Z,13.40
2023-02-11T11:16:27.997Z,14.23
2023-02-11T11:19:20.377Z,13.07
2023-02-11T11:21:55.244Z,12.43
2023-02-11T11:24:29.430Z,12.52
2023-02-11T11:27:00.816Z,13.25
2023-02-11T11:29:28.635Z,13.18
2023-02-11T11:32:00.679Z,13.85
2023-02-11T11:34:32.062Z,14.30
2023-02-11T11:37:00.566Z,13.18
2023-02-11T11:39:32.783Z,13.35
2023-02-11T11:42:25.141Z,13.05
2023-02-11T11:45:01.720Z,13.40
2023-02-11T11:47:43.559Z,13.98
2023-02-11T11:50:30.748Z,12.70
2023-02-11T11:53:04.394Z,14.32
2023-02-11T11:55:42.059Z,14.20
2023-02-11T11:58:23.040Z,13.57
2023-02-11T12:01:23.633Z,13.85
2023-02-11T12:04:03.952Z,12.18
2023-02-11T12:06:53.838Z,13.52
2023-02-11T12:09:31.397Z,11.85
2023-02-11T12:12:23.508Z,12.00
2023-02-11T12:15:08.247Z,13.98
2023-02-11T12:17:50.814Z,14.27
2023-02-11T12:20:26.014Z,13.20
2023-02-11T12:23:31.940Z,13.50
2023-02-11T12:26:12.405Z,13.38
2023-02-11T12:29:07.588Z,15.90
2023-02-11T12:31:47.097Z,13.35
2023-02-11T12:34:40.470Z,14.07
2023-02-11T12:37:24.717Z,13.85
2023-02-11T12:39:56.734Z,15.70
2023-02-11T12:42:48.333Z,14.32
2023-02-11T12:45:33.654Z,14.18
2023-02-11T12:48:38.045Z,13.63
2023-02-11T12:51:16.835Z,13.10
2023-02-11T12:54:14.221Z,14.85
2023-02-11T12:57:02.249Z,14.85
2023-02-11T13:00:08.777Z,13.63
2023-02-11T13:02:47.385Z,15.65
2023-02-11T13:05:19.621Z,13.02
2023-02-11T13:07:47.991Z,15.18
2023-02-11T13:10:15.423Z,12.40
2023-02-11T13:13:05.162Z,14.35
2023-02-11T13:15:32.889Z,14.82
2023-02-11T13:18:09.038Z,15.65
2023-02-11T13:20:58.843Z,15.15
2023-02-11T13:23:50.265Z,13.57
2023-02-11T13:26:25.016Z,12.98
2023-02-11T13:28:56.216Z,13.27
2023-02-11T13:31:26.943Z,12.68
2023-02-11T13:33:53.781Z,15.32
2023-02-11T13:36:23.137Z,12.18
2023-02-11T13:38:56.483Z,13.90
2023-02-11T13:41:28.389Z,13.85
2023-02-11T13:44:08.600Z,14.25
2023-02-11T13:46:57.186Z,14.27
2023-02-11T13:49:26.222Z,12.57
2023-02-11T13:51:54.232Z,13.35
2023-02-11T13:54:34.525Z,13.77
2023-02-11T13:57:19.446Z,11.43
2023-02-11T13:59:55.610Z,11.05
2023-02-11T14:02:50.008Z,11.65
2023-02-11T14:05:51.689Z,12.35
2023-02-11T14:08:40.167Z,10.93
2023-02-11T14:11:32.482Z,13.40
2023-02-11T14:14:08.134Z,10.35
2023-02-11T14:16:38.257Z,10.98
2023-02-11T14:19:06.346Z,11.07
2023-02-11T14:21:39.646Z,11.63
2023-02-11T14:24:06.905Z,11.68
2023-02-11T14:27:01.589Z,10.02
2023-02-11T14:29:36.126Z,10.85
2023-02-11T14:32:08.857Z,10.43
2023-02-11T14:35:00.509Z,10.55
2023-02-11T14:37:49.338Z,11.98
2023-02-11T14:40:34.785Z,10.27
2023-02-11T14:43:20.868Z,9.82
2023-02-11T14:45:55.084Z,10.77
2023-02-11T14:48:29.368Z,9.65
2023-02-11T14:51:03.467Z,11.48
2023-02-11T14:53:33.105Z,10.13
2023-02-11T14:56:00.112Z,9.95
2023-02-11T14:58:32.170Z,10.05
2023-02-11T15:01:00.677Z,10.80
2023-02-11T15:03:38.985Z,9.75
2023-02-11T15:06:27.929Z,8.38
2023-02-11T15:09:02.594Z,9.55
2023-02-11T15:11:34.057Z,10.93
2023-02-11T15:14:26.998Z,9.07
2023-02-11T15:16:58.696Z,9.77
2023-02-11T15:19:38.425Z,9.55
2023-02-11T15:22:21.776Z,9.93
2023-02-11T15:25:07.714Z,8.65
2023-02-11T15:30:23.764Z,9.82
2023-02-11T15:32:53.756Z,9.23
2023-02-11T15:35:20.388Z,8.75
2023-02-11T15:37:48.951Z,10.20
2023-02-11T15:40:24.753Z,9.45
2023-02-11T15:43:06.320Z,9.88
2023-02-11T15:45:34.449Z,10.10
2023-02-11T15:48:20.125Z,9.77
2023-02-11T15:50:58.541Z,9.10
2023-02-11T15:53:43.179Z,9.60
2023-02-11T15:56:26.583Z,10.48
2023-02-11T15:58:56.701Z,9.38
2023-02-11T16:01:35.608Z,8.82
2023-02-11T16:04:05.467Z,8.73
2023-02-11T16:06:40.507Z,9.93
2023-02-11T16:09:11.047Z,8.57
2023-02-11T16:11:57.892Z,9.45
2023-02-11T16:14:39.157Z,9.38
2023-02-11T16:17:10.918Z,9.93
2023-02-11T16:19:45.128Z,8.82
2023-02-11T16:22:17.587Z,9.15
2023-02-11T16:24:47.506Z,9.35
2023-02-11T16:27:20.211Z,11.98
2023-02-11T16:29:49.333Z,9.70
2023-02-11T16:32:25.603Z,10.48
2023-02-11T16:34:53.797Z,10.45
2023-02-11T16:37:20.368Z,10.25
2023-02-11T16:39:47.097Z,10.85
2023-02-11T16:42:13.624Z,11.18
2023-02-11T16:44:40.421Z,10.90
2023-02-11T16:47:17.444Z,11.65
2023-02-11T16:49:44.182Z,11.63
2023-02-11T16:52:16.645Z,12.38
2023-02-11T16:54:43.251Z,12.73
2023-02-11T16:57:18.891Z,11.27
2023-02-11T16:59:46.502Z,12.65
2023-02-11T17:02:18.426Z,10.80
2023-02-11T17:04:45.162Z,11.93
2023-02-11T17:07:12.322Z,12.13
2023-02-11T17:09:39.251Z,13.10
2023-02-11T17:12:06.162Z,11.82
2023-02-11T17:14:32.784Z,12.15
2023-02-11T17:16:59.325Z,12.40
2023-02-11T17:19:26.423Z,11.70
2023-02-11T17:21:53.572Z,12.52
2023-02-11T17:24:21.568Z,12.30
2023-02-11T17:26:48.957Z,12.48
2023-02-11T17:29:19.606Z,13.60
2023-02-11T17:31:46.283Z,14.20
2023-02-11T17:34:12.950Z,15.18
2023-02-11T17:36:41.273Z,14.98
2023-02-11T17:39:08.846Z,14.75
2023-02-11T17:41:39.746Z,15.15
2023-02-11T17:44:08.412Z,14.25
2023-02-11T17:46:35.725Z,15.35
2023-02-11T17:49:03.289Z,14.60
2023-02-11T17:51:35.326Z,14.63
2023-02-11T17:54:06.385Z,13.90
2023-02-11T17:56:34.430Z,15.82
2023-02-11T17:59:02.352Z,13.98
2023-02-11T18:01:29.981Z,15.30
2023-02-11T18:03:56.506Z,15.55
2023-02-11T18:06:23.241Z,15.65
2023-02-11T18:08:49.863Z,14.90
2023-02-11T18:11:16.824Z,16.70
2023-02-11T18:13:45.128Z,16.63
2023-02-11T18:16:15.735Z,15.88
2023-02-11T18:18:45.381Z,15.52
2023-02-11T18:21:15.765Z,14.75
2023-02-11T18:23:43.073Z,13.88
2023-02-11T18:26:11.956Z,15.27
2023-02-11T18:28:39.490Z,15.55
2023-02-11T18:31:07.824Z,16.00
2023-02-11T18:33:36.389Z,15.57
2023-02-11T18:36:07.826Z,15.77
2023-02-11T18:38:35.292Z,15.73
2023-02-11T18:41:02.124Z,14.80
2023-02-11T18:43:31.656Z,15.70
2023-02-11T18:45:58.311Z,15.57
2023-02-11T18:48:26.981Z,16.25
2023-02-11T18:50:54.534Z,15.35
2023-02-11T18:53:22.082Z,16.77
2023-02-11T18:55:49.058Z,14.43
2023-02-11T18:58:15.797Z,15.23
2023-02-11T19:00:45.586Z,15.80
2023-02-11T19:03:12.679Z,15.05
2023-02-11T19:05:47.493Z,15.60
2023-02-11T19:08:15.293Z,17.42
2023-02-11T19:10:44.055Z,14.40
2023-02-11T19:13:11.552Z,14.35
2023-02-11T19:15:42.762Z,14.05
2023-02-11T19:18:10.571Z,14.73
2023-02-11T19:20:42.210Z,13.80
2023-02-11T19:23:09.427Z,14.35
2023-02-11T19:25:36.034Z,15.98
2023-02-11T19:28:03.326Z,15.90
2023-02-11T19:30:30.092Z,16.10
2023-02-11T19:32:57.557Z,15.27
2023-02-11T19:35:25.195Z,15.10
2023-02-11T19:37:52.071Z,15.88
2023-02-11T19:40:21.041Z,15.15
2023-02-11T19:42:47.680Z,18.33
2023-02-11T19:45:14.291Z,17.75
2023-02-11T19:47:40.954Z,15.38
2023-02-11T19:50:08.716Z,15.15
2023-02-11T19:52:38.219Z,16.00
2023-02-11T19:55:05.307Z,16.08
2023-02-11T19:57:31.943Z,16.27
2023-02-11T19:59:58.697Z,16.63
2023-02-11T20:02:25.394Z,16.08
2023-02-11T20:04:51.911Z,16.00
2023-02-11T20:07:18.629Z,16.48
2023-02-11T20:09:45.362Z,17.48
2023-02-11T20:12:12.155Z,16.58
2023-02-11T20:14:38.986Z,17.27
2023-02-11T20:17:05.558Z,16.52
2023-02-11T20:19:32.290Z,14.43
2023-02-11T20:21:59.010Z,16.05
2023-02-11T20:24:25.658Z,15.32
2023-02-11T20:26:55.382Z,16.52
2023-02-11T20:29:23.517Z,16.00
2023-02-11T20:31:50.951Z,15.95
2023-02-11T20:34:18.664Z,17.20
2023-02-11T20:36:51.534Z,17.23
2023-02-11T20:39:21.526Z,16.63
2023-02-11T20:41:48.424Z,17.15
2023-02-11T20:44:15.148Z,16.98
2023-02-11T20:46:48.155Z,17.58
2023-02-11T20:49:18.683Z,17.13
2023-02-11T20:51:46.292Z,15.48
2023-02-11T20:54:16.082Z,16.58
2023-02-11T20:56:44.508Z,17.65
2023-02-11T20:59:13.895Z,17.23
2023-02-11T21:01:43.969Z,17.05
2023-02-11T21:04:13.279Z,16.98
2023-02-11T21:06:45.206Z,17.95
2023-02-11T21:09:14.912Z,16.02
2023-02-11T21:11:42.425Z,15.68
2023-02-11T21:14:10.201Z,17.73
2023-02-11T21:16:36.822Z,17.23
2023-02-11T21:19:04.268Z,17.70
2023-02-11T21:21:35.772Z,16.45
2023-02-11T21:24:02.561Z,17.23
2023-02-11T21:26:29.860Z,16.23
2023-02-11T21:28:56.473Z,17.52
2023-02-11T21:31:30.488Z,17.50
2023-02-11T21:33:59.371Z,16.73
2023-02-11T21:36:27.465Z,16.48
2023-02-11T21:38:54.537Z,17.45
2023-02-11T21:41:22.340Z,18.60
2023-02-11T21:43:49.598Z,16.42
2023-02-11T21:46:18.293Z,17.10
2023-02-11T21:48:45.798Z,17.40
2023-02-11T21:51:19.714Z,15.73
2023-02-11T21:53:46.916Z,16.27
2023-02-11T21:56:16.382Z,18.25
2023-02-11T21:58:45.745Z,15.80
2023-02-11T22:01:19.588Z,16.75
2023-02-11T22:03:46.845Z,17.98
2023-02-11T22:06:21.240Z,15.77
2023-02-11T22:08:50.978Z,15.63
2023-02-11T22:11:18.634Z,15.60
2023-02-11T22:13:46.264Z,17.13
2023-02-11T22:16:16.556Z,16.02
2023-02-11T22:18:46.593Z,15.27
2023-02-11T22:21:16.539Z,14.18
2023-02-11T22:23:44.058Z,15.55
2023-02-11T22:26:13.606Z,16.05
2023-02-11T22:28:40.985Z,15.70
2023-02-11T22:31:11.806Z,15.15
2023-02-11T22:33:38.549Z,15.98
2023-02-11T22:36:07.954Z,15.93
2023-02-11T22:38:35.087Z,15.15
2023-02-11T22:41:06.745Z,14.98
2023-02-11T22:43:33.796Z,14.98
2023-02-11T22:46:01.856Z,14.88
2023-02-11T22:48:29.038Z,14.05
2023-02-11T22:50:55.732Z,15.40
2023-02-11T22:53:25.473Z,14.55
2023-02-11T22:55:52.610Z,15.30
2023-02-11T22:58:19.580Z,13.82
2023-02-11T23:00:46.169Z,13.65
2023-02-11T23:03:12.901Z,14.35
2023-02-11T23:05:41.210Z,14.30
2023-02-11T23:08:10.150Z,13.35
2023-02-11T23:10:38.521Z,13.75
2023-02-11T23:13:06.991Z,13.15
2023-02-11T23:15:34.146Z,14.82
2023-02-11T23:18:01.086Z,13.55
2023-02-11T23:20:27.769Z,12.57
2023-02-11T23:22:54.433Z,13.70
2023-02-11T23:25:20.997Z,14.20
2023-02-11T23:27:47.783Z,14.38
2023-02-11T23:30:14.596Z,11.95
2023-02-11T23:32:41.499Z,14.18
2023-02-11T23:35:08.552Z,13.60
2023-02-11T23:37:35.510Z,12.32
2023-02-11T23:40:02.121Z,13.07
2023-02-11T23:42:29.142Z,13.13
2023-02-11T23:44:55.965Z,13.13
2023-02-11T23:47:22.775Z,13.50
2023-02-11T23:49:49.450Z,13.73
2023-02-11T23:52:16.441Z,12.95
2023-02-11T23:54:43.326Z,13.32
2023-02-11T23:57:10.019Z,11.93
2023-02-11T23:59:36.727Z,12.15
